sensor_id;sensor_type;location;lat;lon;timestamp;P1;durP1;ratioP1;P2;durP2;ratioP2
6661;SDS011;3367;48.714;8.994;2023-02-11T00:02:17;49.87;;;23.03;;
6661;SDS011;3367;48.714;8.994;2023-02-11T00:04:44;53.90;;;24.13;;
6661;SDS011;3367;48.714;8.994;2023-02-11T00:07:11;59.63;;;25.07;;
6661;SDS011;3367;48.714;8.994;2023-02-11T00:09:39;52.83;;;23.03;;
6661;SDS011;3367;48.714;8.994;2023-02-11T00:12:06;63.00;;;26.50;;
6661;SDS011;3367;48.714;8.994;2023-02-11T00:14:33;60.17;;;26.90;;
6661;SDS011;3367;48.714;8.994;2023-02-11T00:17:00;51.83;;;21.70;;
6661;SDS011;3367;48.714;8.994;2023-02-11T00:19:26;44.33;;;20.70;;
6661;SDS011;3367;48.714;8.994;2023-02-11T00:21:53;50.37;;;20.77;;
6661;SDS011;3367;48.714;8.994;2023-02-11T00:24:20;48.07;;;21.90;;
6661;SDS011;3367;48.714;8.994;2023-02-11T00:26:48;45.13;;;22.53;;
6661;SDS011;3367;48.714;8.994;2023-02-11T00:29:15;48.37;;;22.50;;
6661;SDS011;3367;48.714;8.994;2023-02-11T00:31:42;50.40;;;22.70;;
6661;SDS011;3367;48.714;8.994;2023-02-11T00:34:09;50.97;;;21.43;;
6661;SDS011;3367;48.714;8.994;2023-02-11T00:36:35;49.53;;;22.40;;
6661;SDS011;3367;48.714;8.994;2023-02-11T00:39:02;46.00;;;21.33;;
6661;SDS011;3367;48.714;8.994;2023-02-11T00:41:29;47.87;;;22.43;;
6661;SDS011;3367;48.714;8.994;2023-02-11T00:43:58;44.50;;;21.07;;
6661;SDS011;3367;48.714;8.994;2023-02-11T00:46:25;41.17;;;19.50;;
6661;SDS011;3367;48.714;8.994;2023-02-11T00:48:51;49.70;;;22.67;;
6661;SDS011;3367;48.714;8.994;2023-02-11T00:51:21;42.03;;;21.27;;
6661;SDS011;3367;48.714;8.994;2023-02-11T00:53:48;53.90;;;22.67;;
6661;SDS011;3367;48.714;8.994;2023-02-11T00:56:15;46.00;;;20.57;;
6661;SDS011;3367;48.714;8.994;2023-02-11T00:58:44;47.33;;;22.43;;
6661;SDS011;3367;48.714;8.994;2023-02-11T01:01:14;50.33;;;21.47;;
6661;SDS011;3367;48.714;8.994;2023-02-11T01:03:41;41.13;;;19.47;;
6661;SDS011;3367;48.714;8.994;2023-02-11T01:06:08;46.07;;;21.60;;
6661;SDS011;3367;48.714;8.994;2023-02-11T01:08:35;48.90;;;21.17;;
6661;SDS011;3367;48.714;8.994;2023-02-11T01:11:03;44.40;;;22.07;;
6661;SDS011;3367;48.714;8.994;2023-02-11T01:13:31;39.80;;;21.47;;
6661;SDS011;3367;48.714;8.994;2023-02-11T01:16:01;41.57;;;20.53;;
6661;SDS011;3367;48.714;8.994;2023-02-11T01:18:30;50.80;;;19.67;;
6661;SDS011;3367;48.714;8.994;2023-02-11T01:20:56;43.73;;;21.10;;
6661;SDS011;3367;48.714;8.994;2023-02-11T01:23:23;39.70;;;21.57;;
6661;SDS011;3367;48.714;8.994;2023-02-11T01:25:50;46.30;;;23.30;;
6661;SDS011;3367;48.714;8.994;2023-02-11T01:28:19;50.17;;;23.60;;
6661;SDS011;3367;48.714;8.994;2023-02-11T01:30:47;55.23;;;21.87;;
6661;SDS011;3367;48.714;8.994;2023-02-11T01:33:15;46.27;;;22.50;;
6661;SDS011;3367;48.714;8.994;2023-02-11T01:35:43;47.53;;;22.13;;
6661;SDS011;3367;48.714;8.994;2023-02-11T01:38:13;43.10;;;20.77;;
6661;SDS011;3367;48.714;8.994;2023-02-11T01:40:45;43.77;;;19.20;;
6661;SDS011;3367;48.714;8.994;2023-02-11T01:43:12;41.30;;;21.43;;
6661;SDS011;3367;48.714;8.994;2023-02-11T01:45:53;43.20;;;21.70;;
6661;SDS011;3367;48.714;8.994;2023-02-11T01:48:27;49.27;;;22.40;;
6661;SDS011;3367;48.714;8.994;2023-02-11T01:51:00;53.13;;;21.70;;
6661;SDS011;3367;48.714;8.994;2023-02-11T01:53:31;52.07;;;22.03;;
6661;SDS011;3367;48.714;8.994;2023-02-11T01:56:17;49.50;;;22.63;;
6661;SDS011;3367;48.714;8.994;2023-02-11T01:59:04;49.10;;;20.67;;
6661;SDS011;3367;48.714;8.994;2023-02-11T02:01:36;46.73;;;23.23;;
6661;SDS011;3367;48.714;8.994;2023-02-11T02:04:05;41.80;;;20.60;;
6661;SDS011;3367;48.714;8.994;2023-02-11T02:06:39;57.20;;;21.50;;
6661;SDS011;3367;48.714;8.994;2023-02-11T02:09:10;50.10;;;21.50;;
6661;SDS011;3367;48.714;8.994;2023-02-11T02:11:40;45.30;;;20.60;;
6661;SDS011;3367;48.714;8.994;2023-02-11T02:14:07;44.70;;;20.60;;
6661;SDS011;3367;48.714;8.994;2023-02-11T02:16:34;51.27;;;21.33;;
6661;SDS011;3367;48.714;8.994;2023-02-11T02:19:09;45.13;;;20.47;;
6661;SDS011;3367;48.714;8.994;2023-02-11T02:22:03;45.77;;;20.17;;
6661;SDS011;3367;48.714;8.994;2023-02-11T02:24:54;45.03;;;18.77;;
6661;SDS011;3367;48.714;8.994;2023-02-11T02:27:31;52.37;;;21.13;;
6661;SDS011;3367;48.714;8.994;2023-02-11T02:33:01;42.00;;;20.47;;
6661;SDS011;3367;48.714;8.994;2023-02-11T02:35:51;48.67;;;20.27;;
6661;SDS011;3367;48.714;8.994;2023-02-11T02:38:26;40.37;;;21.10;;
6661;SDS011;3367;48.714;8.994;2023-02-11T02:40:58;41.63;;;19.07;;
6661;SDS011;3367;48.714;8.994;2023-02-11T02:43:28;50.93;;;20.97;;
6661;SDS011;3367;48.714;8.994;2023-02-11T02:46:08;54.57;;;20.33;;
6661;SDS011;3367;48.714;8.994;2023-02-11T02:48:37;42.87;;;20.93;;
6661;SDS011;3367;48.714;8.994;2023-02-11T02:51:06;44.27;;;18.40;;
6661;SDS011;3367;48.714;8.994;2023-02-11T02:53:43;41.23;;;18.97;;
6661;SDS011;3367;48.714;8.994;2023-02-11T02:56:24;42.27;;;19.47;;
6661;SDS011;3367;48.714;8.994;2023-02-11T02:59:02;38.90;;;20.30;;
6661;SDS011;3367;48.714;8.994;2023-02-11T03:01:45;45.43;;;19.50;;
6661;SDS011;3367;48.714;8.994;2023-02-11T03:04:21;42.43;;;19.33;;
6661;SDS011;3367;48.714;8.994;2023-02-11T03:06:54;39.83;;;19.40;;
6661;SDS011;3367;48.714;8.994;2023-02-11T03:09:27;42.20;;;19.07;;
6661;SDS011;3367;48.714;8.994;2023-02-11T03:11:57;39.47;;;20.23;;
6661;SDS011;3367;48.714;8.994;2023-02-11T03:14:27;42.73;;;21.07;;
6661;SDS011;3367;48.714;8.994;2023-02-11T03:16:55;42.47;;;19.57;;
6661;SDS011;3367;48.714;8.994;2023-02-11T03:19:27;40.00;;;18.17;;
6661;SDS011;3367;48.714;8.994;2023-02-11T03:21:55;36.20;;;19.00;;
6661;SDS011;3367;48.714;8.994;2023-02-11T03:24:23;44.30;;;19.67;;
6661;SDS011;3367;48.714;8.994;2023-02-11T03:26:55;47.27;;;19.50;;
6661;SDS011;3367;48.714;8.994;2023-02-11T03:29:26;39.33;;;19.13;;
6661;SDS011;3367;48.714;8.994;2023-02-11T03:31:59;45.70;;;19.97;;
6661;SDS011;3367;48.714;8.994;2023-02-11T03:34:31;45.00;;;20.87;;
6661;SDS011;3367;48.714;8.994;2023-02-11T03:37:05;43.70;;;19.80;;
6661;SDS011;3367;48.714;8.994;2023-02-11T03:39:35;46.00;;;21.10;;
6661;SDS011;3367;48.714;8.994;2023-02-11T03:42:05;44.50;;;20.30;;
6661;SDS011;3367;48.714;8.994;2023-02-11T03:44:36;49.40;;;21.30;;
6661;SDS011;3367;48.714;8.994;2023-02-11T03:47:08;45.20;;;20.63;;
6661;SDS011;3367;48.714;8.994;2023-02-11T03:49:40;42.53;;;20.63;;
6661;SDS011;3367;48.714;8.994;2023-02-11T03:52:10;47.43;;;20.63;;
6661;SDS011;3367;48.714;8.994;2023-02-11T03:54:39;40.87;;;22.13;;
6661;SDS011;3367;48.714;8.994;2023-02-11T03:57:08;43.43;;;19.90;;
6661;SDS011;3367;48.714;8.994;2023-02-11T03:59:48;42.73;;;20.97;;
6661;SDS011;3367;48.714;8.994;2023-02-11T04:02:16;39.23;;;19.80;;
6661;SDS011;3367;48.714;8.994;2023-02-11T04:04:44;49.13;;;21.13;;
6661;SDS011;3367;48.714;8.994;2023-02-11T04:07:12;43.60;;;19.87;;
6661;SDS011;3367;48.714;8.994;2023-02-11T04:09:38;35.73;;;19.30;;
6661;SDS011;3367;48.714;8.994;2023-02-11T04:12:05;39.73;;;19.50;;
6661;SDS011;3367;48.714;8.994;2023-02-11T04:14:33;49.73;;;22.07;;
6661;SDS011;3367;48.714;8.994;2023-02-11T04:16:59;45.57;;;20.80;;
6661;SDS011;3367;48.714;8.994;2023-02-11T04:19:26;43.90;;;20.20;;
6661;SDS011;3367;48.714;8.994;2023-02-11T04:21:54;48.53;;;22.07;;
6661;SDS011;3367;48.714;8.994;2023-02-11T04:24:21;46.70;;;21.17;;
6661;SDS011;3367;48.714;8.994;2023-02-11T04:26:48;34.67;;;19.10;;
6661;SDS011;3367;48.714;8.994;2023-02-11T04:29:14;37.70;;;20.33;;
6661;SDS011;3367;48.714;8.994;2023-02-11T04:31:41;41.33;;;19.03;;
6661;SDS011;3367;48.714;8.994;2023-02-11T04:34:08;40.80;;;18.77;;
6661;SDS011;3367;48.714;8.994;2023-02-11T04:36:34;38.97;;;19.37;;
6661;SDS011;3367;48.714;8.994;2023-02-11T04:39:02;43.30;;;21.03;;
6661;SDS011;3367;48.714;8.994;2023-02-11T04:41:29;42.60;;;19.37;;
6661;SDS011;3367;48.714;8.994;2023-02-11T04:43:56;42.03;;;19.83;;
6661;SDS011;3367;48.714;8.994;2023-02-11T04:46:23;41.43;;;20.57;;
6661;SDS011;3367;48.714;8.994;2023-02-11T04:48:50;40.13;;;19.80;;
6661;SDS011;3367;48.714;8.994;2023-02-11T04:51:16;35.70;;;18.40;;
6661;SDS011;3367;48.714;8.994;2023-02-11T04:53:43;36.40;;;18.97;;
6661;SDS011;3367;48.714;8.994;2023-02-11T04:56:11;33.17;;;17.37;;
6661;SDS011;3367;48.714;8.994;2023-02-11T04:58:38;32.80;;;18.40;;
6661;SDS011;3367;48.714;8.994;2023-02-11T05:01:05;37.97;;;18.60;;
6661;SDS011;3367;48.714;8.994;2023-02-11T05:03:32;34.73;;;18.87;;
6661;SDS011;3367;48.714;8.994;2023-02-11T05:05:59;43.50;;;19.20;;
6661;SDS011;3367;48.714;8.994;2023-02-11T05:08:26;31.00;;;17.50;;
6661;SDS011;3367;48.714;8.994;2023-02-11T05:10:53;34.87;;;17.63;;
6661;SDS011;3367;48.714;8.994;2023-02-11T05:13:21;37.97;;;20.03;;
6661;SDS011;3367;48.714;8.994;2023-02-11T05:15:48;34.00;;;18.40;;
6661;SDS011;3367;48.714;8.994;2023-02-11T05:18:14;35.80;;;17.70;;
6661;SDS011;3367;48.714;8.994;2023-02-11T05:20:41;38.77;;;18.10;;
6661;SDS011;3367;48.714;8.994;2023-02-11T05:23:09;35.27;;;18.77;;
6661;SDS011;3367;48.714;8.994;2023-02-11T05:25:36;33.93;;;18.23;;
6661;SDS011;3367;48.714;8.994;2023-02-11T05:28:03;34.60;;;18.17;;
6661;SDS011;3367;48.714;8.994;2023-02-11T05:30:31;33.20;;;17.60;;
6661;SDS011;3367;48.714;8.994;2023-02-11T05:32:58;33.80;;;18.10;;
6661;SDS011;3367;48.714;8.994;2023-02-11T05:35:25;36.07;;;18.70;;
6661;SDS011;3367;48.714;8.994;2023-02-11T05:37:52;36.63;;;19.37;;
6661;SDS011;3367;48.714;8.994;2023-02-11T05:40:18;33.60;;;18.30;;
6661;SDS011;3367;48.714;8.994;2023-02-11T05:42:45;34.70;;;18.27;;
6661;SDS011;3367;48.714;8.994;2023-02-11T05:45:12;39.40;;;18.53;;
6661;SDS011;3367;48.714;8.994;2023-02-11T05:47:40;34.53;;;18.97;;
6661;SDS011;3367;48.714;8.994;2023-02-11T05:50:06;38.00;;;19.17;;
6661;SDS011;3367;48.714;8.994;2023-02-11T05:52:33;37.07;;;17.47;;
6661;SDS011;3367;48.714;8.994;2023-02-11T05:55:00;35.00;;;19.53;;
6661;SDS011;3367;48.714;8.994;2023-02-11T05:57:27;31.97;;;16.97;;
6661;SDS011;3367;48.714;8.994;2023-02-11T05:59:53;31.80;;;18.93;;
6661;SDS011;3367;48.714;8.994;2023-02-11T06:02:20;35.70;;;17.50;;
6661;SDS011;3367;48.714;8.994;2023-02-11T06:04:48;34.33;;;18.50;;
6661;SDS011;3367;48.714;8.994;2023-02-11T06:07:15;35.87;;;18.20;;
6661;SDS011;3367;48.714;8.994;2023-02-11T06:09:43;36.40;;;17.70;;
6661;SDS011;3367;48.714;8.994;2023-02-11T06:12:10;34.67;;;16.63;;
6661;SDS011;3367;48.714;8.994;2023-02-11T06:14:37;34.03;;;17.80;;
6661;SDS011;3367;48.714;8.994;2023-02-11T06:17:03;36.47;;;17.10;;
6661;SDS011;3367;48.714;8.994;2023-02-11T06:19:30;29.97;;;17.03;;
6661;SDS011;3367;48.714;8.994;2023-02-11T06:21:58;31.70;;;19.03;;
6661;SDS011;3367;48.714;8.994;2023-02-11T06:24:25;29.70;;;17.80;;
6661;SDS011;3367;48.714;8.994;2023-02-11T06:26:52;32.40;;;18.60;;
6661;SDS011;3367;48.714;8.994;2023-02-11T06:29:18;33.87;;;17.50;;
6661;SDS011;3367;48.714;8.994;2023-02-11T06:31:45;36.50;;;17.83;;
6661;SDS011;3367;48.714;8.994;2023-02-11T06:34:11;34.03;;;17.80;;
6661;SDS011;3367;48.714;8.994;2023-02-11T06:36:38;33.60;;;16.73;;
6661;SDS011;3367;48.714;8.994;2023-02-11T06:39:08;25.70;;;16.40;;
6661;SDS011;3367;48.714;8.994;2023-02-11T06:41:37;36.47;;;18.63;;
6661;SDS011;3367;48.714;8.994;2023-02-11T06:44:03;32.80;;;17.90;;
6661;SDS011;3367;48.714;8.994;2023-02-11T06:46:31;36.90;;;19.33;;
6661;SDS011;3367;48.714;8.994;2023-02-11T06:48:57;31.50;;;18.10;;
6661;SDS011;3367;48.714;8.994;2023-02-11T06:51:24;35.03;;;18.13;;
6661;SDS011;3367;48.714;8.994;2023-02-11T06:53:51;35.07;;;18.17;;
6661;SDS011;3367;48.714;8.994;2023-02-11T06:56:20;33.97;;;18.00;;
6661;SDS011;3367;48.714;8.994;2023-02-11T06:58:50;33.43;;;17.10;;
6661;SDS011;3367;48.714;8.994;2023-02-11T07:01:18;32.77;;;17.33;;
6661;SDS011;3367;48.714;8.994;2023-02-11T07:03:45;33.93;;;19.17;;
6661;SDS011;3367;48.714;8.994;2023-02-11T07:06:13;30.37;;;17.63;;
6661;SDS011;3367;48.714;8.994;2023-02-11T07:08:41;29.57;;;17.10;;
6661;SDS011;3367;48.714;8.994;2023-02-11T07:11:10;34.80;;;18.33;;
6661;SDS011;3367;48.714;8.994;2023-02-11T07:13:40;33.23;;;17.20;;
6661;SDS011;3367;48.714;8.994;2023-02-11T07:16:07;41.50;;;21.03;;
6661;SDS011;3367;48.714;8.994;2023-02-11T07:18:35;33.80;;;18.13;;
6661;SDS011;3367;48.714;8.994;2023-02-11T07:21:03;32.13;;;17.87;;
6661;SDS011;3367;48.714;8.994;2023-02-11T07:23:30;34.43;;;18.63;;
6661;SDS011;3367;48.714;8.994;2023-02-11T07:25:57;35.10;;;19.30;;
6661;SDS011;3367;48.714;8.994;2023-02-11T07:28:27;35.03;;;20.10;;
6661;SDS011;3367;48.714;8.994;2023-02-11T07:30:55;39.77;;;20.00;;
6661;SDS011;3367;48.714;8.994;2023-02-11T07:33:21;30.37;;;17.60;;
6661;SDS011;3367;48.714;8.994;2023-02-11T07:35:48;33.30;;;18.50;;
6661;SDS011;3367;48.714;8.994;2023-02-11T07:38:15;33.40;;;19.13;;
6661;SDS011;3367;48.714;8.994;2023-02-11T07:40:41;39.70;;;19.23;;
6661;SDS011;3367;48.714;8.994;2023-02-11T07:43:08;33.90;;;19.27;;
6661;SDS011;3367;48.714;8.994;2023-02-11T07:45:37;37.23;;;20.00;;
6661;SDS011;3367;48.714;8.994;2023-02-11T07:48:05;36.13;;;20.07;;
6661;SDS011;3367;48.714;8.994;2023-02-11T07:50:32;38.00;;;20.00;;
6661;SDS011;3367;48.714;8.994;2023-02-11T07:52:58;39.00;;;21.33;;
6661;SDS011;3367;48.714;8.994;2023-02-11T07:55:25;33.77;;;19.67;;
6661;SDS011;3367;48.714;8.994;2023-02-11T07:57:52;33.77;;;19.53;;
6661;SDS011;3367;48.714;8.994;2023-02-11T08:00:18;35.43;;;19.17;;
6661;SDS011;3367;48.714;8.994;2023-02-11T08:02:45;34.13;;;17.23;;
6661;SDS011;3367;48.714;8.994;2023-02-11T08:05:13;37.60;;;17.30;;
6661;SDS011;3367;48.714;8.994;2023-02-11T08:07:40;33.40;;;17.50;;
6661;SDS011;3367;48.714;8.994;2023-02-11T08:10:07;33.83;;;19.70;;
6661;SDS011;3367;48.714;8.994;2023-02-11T08:12:34;26.50;;;16.13;;
6661;SDS011;3367;48.714;8.994;2023-02-11T08:15:01;31.97;;;17.23;;
6661;SDS011;3367;48.714;8.994;2023-02-11T08:17:27;26.30;;;14.93;;
6661;SDS011;3367;48.714;8.994;2023-02-11T08:19:54;30.50;;;16.17;;
6661;SDS011;3367;48.714;8.994;2023-02-11T08:22:22;26.33;;;15.60;;
6661;SDS011;3367;48.714;8.994;2023-02-11T08:24:49;25.70;;;14.40;;
6661;SDS011;3367;48.714;8.994;2023-02-11T08:27:15;25.47;;;13.13;;
6661;SDS011;3367;48.714;8.994;2023-02-11T08:29:42;24.73;;;13.30;;
6661;SDS011;3367;48.714;8.994;2023-02-11T08:32:09;24.57;;;15.27;;
6661;SDS011;3367;48.714;8.994;2023-02-11T08:34:35;23.80;;;13.93;;
6661;SDS011;3367;48.714;8.994;2023-02-11T08:37:02;25.63;;;14.80;;
6661;SDS011;3367;48.714;8.994;2023-02-11T08:39:30;23.70;;;15.53;;
6661;SDS011;3367;48.714;8.994;2023-02-11T08:41:57;27.17;;;14.70;;
6661;SDS011;3367;48.714;8.994;2023-02-11T08:44:23;25.87;;;15.20;;
6661;SDS011;3367;48.714;8.994;2023-02-11T08:46:51;19.73;;;12.50;;
6661;SDS011;3367;48.714;8.994;2023-02-11T08:49:18;26.80;;;15.37;;
6661;SDS011;3367;48.714;8.994;2023-02-11T08:51:46;24.77;;;15.77;;
6661;SDS011;3367;48.714;8.994;2023-02-11T08:54:13;28.80;;;15.10;;
6661;SDS011;3367;48.714;8.994;2023-02-11T08:56:42;26.00;;;15.07;;
6661;SDS011;3367;48.714;8.994;2023-02-11T08:59:10;27.37;;;15.60;;
6661;SDS011;3367;48.714;8.994;2023-02-11T09:01:38;28.20;;;15.30;;
6661;SDS011;3367;48.714;8.994;2023-02-11T09:04:05;26.60;;;15.30;;
6661;SDS011;3367;48.714;8.994;2023-02-11T09:06:32;24.83;;;14.97;;
6661;SDS011;3367;48.714;8.994;2023-02-11T09:08:58;27.37;;;15.70;;
6661;SDS011;3367;48.714;8.994;2023-02-11T09:11:26;30.30;;;16.87;;
6661;SDS011;3367;48.714;8.994;2023-02-11T09:13:55;27.37;;;15.87;;
6661;SDS011;3367;48.714;8.994;2023-02-11T09:16:23;28.43;;;15.07;;
6661;SDS011;3367;48.714;8.994;2023-02-11T09:18:52;26.10;;;14.13;;
6661;SDS011;3367;48.714;8.994;2023-02-11T09:21:19;27.60;;;14.27;;
6661;SDS011;3367;48.714;8.994;2023-02-11T09:23:45;24.57;;;14.23;;
6661;SDS011;3367;48.714;8.994;2023-02-11T09:26:13;26.73;;;14.03;;
6661;SDS011;3367;48.714;8.994;2023-02-11T09:28:41;22.17;;;13.90;;
6661;SDS011;3367;48.714;8.994;2023-02-11T09:31:10;21.47;;;12.80;;
6661;SDS011;3367;48.714;8.994;2023-02-11T09:33:38;22.60;;;13.50;;
6661;SDS011;3367;48.714;8.994;2023-02-11T09:36:12;22.97;;;13.07;;
6661;SDS011;3367;48.714;8.994;2023-02-11T09:38:39;24.93;;;14.77;;
6661;SDS011;3367;48.714;8.994;2023-02-11T09:41:11;23.70;;;13.03;;
6661;SDS011;3367;48.714;8.994;2023-02-11T09:43:51;21.73;;;12.07;;
6661;SDS011;3367;48.714;8.994;2023-02-11T09:46:22;20.63;;;12.30;;
6661;SDS011;3367;48.714;8.994;2023-02-11T09:48:51;22.27;;;11.77;;
6661;SDS011;3367;48.714;8.994;2023-02-11T09:51:20;19.30;;;11.87;;
6661;SDS011;3367;48.714;8.994;2023-02-11T09:53:59;18.67;;;11.93;;
6661;SDS011;3367;48.714;8.994;2023-02-11T09:56:30;19.67;;;12.53;;
6661;SDS011;3367;48.714;8.994;2023-02-11T09:58:57;19.10;;;12.43;;
6661;SDS011;3367;48.714;8.994;2023-02-11T10:01:26;20.03;;;11.20;;
6661;SDS011;3367;48.714;8.994;2023-02-11T10:04:03;17.27;;;10.60;;
6661;SDS011;3367;48.714;8.994;2023-02-11T10:06:39;20.73;;;11.73;;
6661;SDS011;3367;48.714;8.994;2023-02-11T10:09:14;17.33;;;11.83;;
6661;SDS011;3367;48.714;8.994;2023-02-11T10:11:55;20.27;;;11.17;;
6661;SDS011;3367;48.714;8.994;2023-02-11T10:14:41;15.90;;;9.83;;
6661;SDS011;3367;48.714;8.994;2023-02-11T10:17:18;22.80;;;10.10;;
6661;SDS011;3367;48.714;8.994;2023-02-11T10:19:56;16.90;;;10.30;;
6661;SDS011;3367;48.714;8.994;2023-02-11T10:22:34;19.70;;;11.10;;
6661;SDS011;3367;48.714;8.994;2023-02-11T10:25:10;23.77;;;12.40;;
6661;SDS011;3367;48.714;8.994;2023-02-11T10:27:43;22.67;;;12.50;;
6661;SDS011;3367;48.714;8.994;2023-02-11T10:30:15;19.60;;;12.23;;
6661;SDS011;3367;48.714;8.994;2023-02-11T10:32:50;20.70;;;11.20;;
6661;SDS011;3367;48.714;8.994;2023-02-11T10:35:21;13.63;;;9.83;;
6661;SDS011;3367;48.714;8.994;2023-02-11T10:37:51;15.50;;;9.90;;
6661;SDS011;3367;48.714;8.994;2023-02-11T10:40:20;22.63;;;11.13;;
6661;SDS011;3367;48.714;8.994;2023-02-11T10:42:50;17.53;;;11.20;;
6661;SDS011;3367;48.714;8.994;2023-02-11T10:45:20;18.13;;;10.87;;
6661;SDS011;3367;48.714;8.994;2023-02-11T10:47:51;28.50;;;10.20;;
6661;SDS011;3367;48.714;8.994;2023-02-11T10:50:20;15.03;;;9.43;;
6661;SDS011;3367;48.714;8.994;2023-02-11T10:52:49;14.20;;;10.43;;
6661;SDS011;3367;48.714;8.994;2023-02-11T10:55:17;18.07;;;9.57;;
6661;SDS011;3367;48.714;8.994;2023-02-11T10:57:49;18.03;;;10.63;;
6661;SDS011;3367;48.714;8.994;2023-02-11T11:00:22;13.50;;;9.20;;
6661;SDS011;3367;48.714;8.994;2023-02-11T11:02:58;15.67;;;10.17;;
6661;SDS011;3367;48.714;8.994;2023-02-11T11:05:28;15.47;;;8.20;;
6661;SDS011;3367;48.714;8.994;2023-02-11T11:07:57;12.77;;;7.70;;
6661;SDS011;3367;48.714;8.994;2023-02-11T11:10:27;13.80;;;8.30;;
6661;SDS011;3367;48.714;8.994;2023-02-11T11:12:56;15.93;;;7.90;;
6661;SDS011;3367;48.714;8.994;2023-02-11T11:15:23;11.70;;;7.57;;
6661;SDS011;3367;48.714;8.994;2023-02-11T11:18:08;17.03;;;8.20;;
6661;SDS011;3367;48.714;8.994;2023-02-11T11:20:38;7.90;;;5.80;;
6661;SDS011;3367;48.714;8.994;2023-02-11T11:23:19;6.30;;;5.10;;
6661;SDS011;3367;48.714;8.994;2023-02-11T11:25:57;8.77;;;5.80;;
6661;SDS011;3367;48.714;8.994;2023-02-11T11:28:28;12.83;;;6.27;;
6661;SDS011;3367;48.714;8.994;2023-02-11T11:31:00;8.07;;;6.60;;
6661;SDS011;3367;48.714;8.994;2023-02-11T11:33:30;10.70;;;6.60;;
6661;SDS011;3367;48.714;8.994;2023-02-11T11:36:02;8.23;;;5.67;;
6661;SDS011;3367;48.714;8.994;2023-02-11T11:38:31;7.43;;;5.50;;
6661;SDS011;3367;48.714;8.994;2023-02-11T11:41:18;9.83;;;6.27;;
6661;SDS011;3367;48.714;8.994;2023-02-11T11:43:57;6.70;;;5.30;;
6661;SDS011;3367;48.714;8.994;2023-02-11T11:46:30;7.87;;;5.40;;
6661;SDS011;3367;48.714;8.994;2023-02-11T11:49:06;7.40;;;5.57;;
6661;SDS011;3367;48.714;8.994;2023-02-11T11:51:44;6.77;;;5.00;;
6661;SDS011;3367;48.714;8.994;2023-02-11T11:54:16;9.00;;;5.60;;
6661;SDS011;3367;48.714;8.994;2023-02-11T11:56:46;9.77;;;6.30;;
6661;SDS011;3367;48.714;8.994;2023-02-11T11:59:18;7.33;;;5.07;;
6661;SDS011;3367;48.714;8.994;2023-02-11T12:01:50;8.70;;;6.27;;
6661;SDS011;3367;48.714;8.994;2023-02-11T12:04:35;7.77;;;5.70;;
6661;SDS011;3367;48.714;8.994;2023-02-11T12:07:25;8.43;;;6.40;;
6661;SDS011;3367;48.714;8.994;2023-02-11T12:10:16;8.87;;;6.20;;
6661;SDS011;3367;48.714;8.994;2023-02-11T12:13:04;7.43;;;5.77;;
6661;SDS011;3367;48.714;8.994;2023-02-11T12:15:40;10.13;;;5.60;;
6661;SDS011;3367;48.714;8.994;2023-02-11T12:18:16;7.40;;;5.43;;
6661;SDS011;3367;48.714;8.994;2023-02-11T12:20:56;9.77;;;6.13;;
6661;SDS011;3367;48.714;8.994;2023-02-11T12:23:48;10.97;;;7.80;;
6661;SDS011;3367;48.714;8.994;2023-02-11T12:26:25;11.27;;;6.63;;
6661;SDS011;3367;48.714;8.994;2023-02-11T12:28:59;9.90;;;6.00;;
6661;SDS011;3367;48.714;8.994;2023-02-11T12:31:37;10.93;;;7.27;;
6661;SDS011;3367;48.714;8.994;2023-02-11T12:34:24;9.47;;;6.63;;
6661;SDS011;3367;48.714;8.994;2023-02-11T12:37:05;8.03;;;5.80;;
6661;SDS011;3367;48.714;8.994;2023-02-11T12:39:43;9.53;;;5.87;;
6661;SDS011;3367;48.714;8.994;2023-02-11T12:42:26;10.70;;;6.20;;
6661;SDS011;3367;48.714;8.994;2023-02-11T12:45:20;8.43;;;5.20;;
6661;SDS011;3367;48.714;8.994;2023-02-11T12:48:00;9.97;;;6.00;;
6661;SDS011;3367;48.714;8.994;2023-02-11T12:50:39;8.00;;;5.13;;
6661;SDS011;3367;48.714;8.994;2023-02-11T12:53:19;6.13;;;4.20;;
6661;SDS011;3367;48.714;8.994;2023-02-11T12:55:58;6.57;;;4.43;;
6661;SDS011;3367;48.714;8.994;2023-02-11T12:58:30;7.07;;;5.07;;
6661;SDS011;3367;48.714;8.994;2023-02-11T13:01:01;8.50;;;5.20;;
6661;SDS011;3367;48.714;8.994;2023-02-11T13:03:34;6.40;;;4.90;;
6661;SDS011;3367;48.714;8.994;2023-02-11T13:06:06;8.80;;;5.37;;
6661;SDS011;3367;48.714;8.994;2023-02-11T13:08:36;5.83;;;4.07;;
6661;SDS011;3367;48.714;8.994;2023-02-11T13:11:06;11.40;;;5.30;;
6661;SDS011;3367;48.714;8.994;2023-02-11T13:13:41;8.30;;;4.80;;
6661;SDS011;3367;48.714;8.994;2023-02-11T13:16:16;12.43;;;5.50;;
6661;SDS011;3367;48.714;8.994;2023-02-11T13:18:54;6.50;;;5.30;;
6661;SDS011;3367;48.714;8.994;2023-02-11T13:21:28;7.87;;;4.60;;
6661;SDS011;3367;48.714;8.994;2023-02-11T13:24:04;8.83;;;5.27;;
6661;SDS011;3367;48.714;8.994;2023-02-11T13:26:41;5.90;;;4.83;;
6661;SDS011;3367;48.714;8.994;2023-02-11T13:29:17;7.53;;;4.87;;
6661;SDS011;3367;48.714;8.994;2023-02-11T13:31:52;7.90;;;5.57;;
6661;SDS011;3367;48.714;8.994;2023-02-11T13:34:22;10.60;;;6.40;;
6661;SDS011;3367;48.714;8.994;2023-02-11T13:36:53;7.10;;;5.10;;
6661;SDS011;3367;48.714;8.994;2023-02-11T13:39:22;7.97;;;6.27;;
6661;SDS011;3367;48.714;8.994;2023-02-11T13:41:49;7.83;;;5.40;;
6661;SDS011;3367;48.714;8.994;2023-02-11T13:44:23;8.07;;;6.37;;
6661;SDS011;3367;48.714;8.994;2023-02-11T13:46:52;8.97;;;6.07;;
6661;SDS011;3367;48.714;8.994;2023-02-11T13:49:22;9.60;;;6.20;;
6661;SDS011;3367;48.714;8.994;2023-02-11T13:51:52;14.90;;;7.53;;
6661;SDS011;3367;48.714;8.994;2023-02-11T13:54:29;9.93;;;6.80;;
6661;SDS011;3367;48.714;8.994;2023-02-11T13:57:21;12.80;;;7.90;;
6661;SDS011;3367;48.714;8.994;2023-02-11T14:00:05;11.47;;;7.77;;
6661;SDS011;3367;48.714;8.994;2023-02-11T14:06:12;15.40;;;8.20;;
6661;SDS011;3367;48.714;8.994;2023-02-11T14:09:07;12.10;;;9.10;;
6661;SDS011;3367;48.714;8.994;2023-02-11T14:11:50;15.27;;;8.43;;
6661;SDS011;3367;48.714;8.994;2023-02-11T14:14:20;15.50;;;9.77;;
6661;SDS011;3367;48.714;8.994;2023-02-11T14:19:43;14.53;;;8.53;;
6661;SDS011;3367;48.714;8.994;2023-02-11T14:22:11;19.93;;;9.33;;
6661;SDS011;3367;48.714;8.994;2023-02-11T14:24:45;14.17;;;8.90;;
6661;SDS011;3367;48.714;8.994;2023-02-11T14:27:24;16.67;;;8.50;;
6661;SDS011;3367;48.714;8.994;2023-02-11T14:29:59;13.80;;;9.07;;
6661;SDS011;3367;48.714;8.994;2023-02-11T14:32:45;22.40;;;9.90;;
6661;SDS011;3367;48.714;8.994;2023-02-11T14:35:22;15.63;;;10.40;;
6661;SDS011;3367;48.714;8.994;2023-02-11T14:37:58;15.50;;;9.17;;
6661;SDS011;3367;48.714;8.994;2023-02-11T14:40:33;16.50;;;10.63;;
6661;SDS011;3367;48.714;8.994;2023-02-11T14:43:10;17.87;;;11.13;;
6661;SDS011;3367;48.714;8.994;2023-02-11T14:45:39;18.37;;;10.30;;
6661;SDS011;3367;48.714;8.994;2023-02-11T14:48:12;14.77;;;9.40;;
6661;SDS011;3367;48.714;8.994;2023-02-11T14:50:42;13.63;;;8.80;;
6661;SDS011;3367;48.714;8.994;2023-02-11T14:53:12;17.13;;;10.37;;
6661;SDS011;3367;48.714;8.994;2023-02-11T14:55:42;13.93;;;9.60;;
6661;SDS011;3367;48.714;8.994;2023-02-11T14:58:13;18.40;;;9.47;;
6661;SDS011;3367;48.714;8.994;2023-02-11T15:00:50;19.07;;;8.93;;
6661;SDS011;3367;48.714;8.994;2023-02-11T15:03:26;18.03;;;9.93;;
6661;SDS011;3367;48.714;8.994;2023-02-11T15:05:55;17.50;;;10.63;;
6661;SDS011;3367;48.714;8.994;2023-02-11T15:08:23;18.47;;;9.20;;
6661;SDS011;3367;48.714;8.994;2023-02-11T15:10:50;17.20;;;9.00;;
6661;SDS011;3367;48.714;8.994;2023-02-11T15:13:21;16.53;;;9.67;;
6661;SDS011;3367;48.714;8.994;2023-02-11T15:15:51;14.03;;;8.70;;
6661;SDS011;3367;48.714;8.994;2023-02-11T15:18:31;16.93;;;10.40;;
6661;SDS011;3367;48.714;8.994;2023-02-11T15:21:02;13.17;;;8.77;;
6661;SDS011;3367;48.714;8.994;2023-02-11T15:23:29;17.53;;;8.57;;
6661;SDS011;3367;48.714;8.994;2023-02-11T15:25:57;14.20;;;8.33;;